createdAt,value
2023-05-19T00:00:47.524Z,2.70
2023-05-19T00:05:59.198Z,2.50
2023-05-19T00:11:02.728Z,2.40
2023-05-19T00:16:06.504Z,2.50
2023-05-19T00:21:09.933Z,2.60
2023-05-19T00:26:13.452Z,2.30
2023-05-19T00:31:18.250Z,2.10
2023-05-19T00:36:21.557Z,2.10
2023-05-19T00:41:25.039Z,2.40
2023-05-19T00:46:28.557Z,1.90
2023-05-19T00:51:32.305Z,2.00
2023-05-19T00:56:35.631Z,2.00
2023-05-19T01:01:39.559Z,1.60
2023-05-19T01:06:43.887Z,1.80
2023-05-19T01:11:47.184Z,1.50
2023-05-19T01:17:24.530Z,1.50
2023-05-19T01:23:01.837Z,1.50
2023-05-19T01:28:33.301Z,1.60
2023-05-19T01:33:40.011Z,1.60
2023-05-19T01:38:44.331Z,1.40
2023-05-19T01:43:49.205Z,1.50
2023-05-19T01:48:53.534Z,1.40
2023-05-19T01:53:56.880Z,1.90
2023-05-19T01:59:09.892Z,1.60
2023-05-19T02:04:20.409Z,1.50
2023-05-19T02:09:42.356Z,1.60
2023-05-19T02:15:01.069Z,1.70
2023-05-19T02:20:05.545Z,2.10
2023-05-19T02:25:09.824Z,2.10
2023-05-19T02:30:16.619Z,1.90
2023-05-19T02:35:21.342Z,1.90
2023-05-19T02:40:24.557Z,2.20
2023-05-19T02:45:28.926Z,2.30
2023-05-19T02:50:34.092Z,1.90
2023-05-19T02:55:37.672Z,2.20
2023-05-19T03:00:40.942Z,2.30
2023-05-19T03:05:44.262Z,2.40
2023-05-19T03:10:47.669Z,2.70
2023-05-19T03:15:51.421Z,2.90
2023-05-19T03:20:54.771Z,2.80
2023-05-19T03:25:58.532Z,2.60
2023-05-19T03:31:01.883Z,2.90
2023-05-19T03:36:10.178Z,2.90
2023-05-19T03:41:15.571Z,3.50
2023-05-19T03:46:18.984Z,4.00
2023-05-19T03:51:36.822Z,4.20
2023-05-19T03:56:47.041Z,4.40
2023-05-19T04:01:51.744Z,4.40
2023-05-19T04:06:55.356Z,4.10
2023-05-19T04:11:59.077Z,3.70
2023-05-19T04:17:02.830Z,3.00
2023-05-19T04:22:06.218Z,3.40
2023-05-19T04:27:12.294Z,3.50
2023-05-19T04:32:18.078Z,3.50
2023-05-19T04:37:22.410Z,3.60
2023-05-19T04:42:30.866Z,3.10
2023-05-19T04:47:38.943Z,2.90
2023-05-19T04:52:42.906Z,3.00
2023-05-19T04:57:47.091Z,2.70
2023-05-19T05:02:51.078Z,3.00
2023-05-19T05:07:56.537Z,2.90
2023-05-19T05:13:02.052Z,3.00
2023-05-19T05:18:07.072Z,3.30
2023-05-19T05:23:14.855Z,2.80
2023-05-19T05:28:19.174Z,2.50
2023-05-19T05:33:24.963Z,2.80
2023-05-19T05:38:28.587Z,2.90
2023-05-19T05:43:32.251Z,2.80
2023-05-19T05:48:37.667Z,2.80
2023-05-19T05:53:55.522Z,3.10
2023-05-19T05:59:03.662Z,3.40
2023-05-19T06:04:07.350Z,2.80
2023-05-19T06:09:10.709Z,2.50
2023-05-19T06:14:14.182Z,3.10
2023-05-19T06:19:30.799Z,2.80
2023-05-19T06:24:35.215Z,2.80
2023-05-19T06:29:39.688Z,2.50
2023-05-19T06:34:43.883Z,2.50
2023-05-19T06:39:47.379Z,3.10
2023-05-19T06:44:51.531Z,3.00
2023-05-19T06:49:55.676Z,2.90
2023-05-19T06:55:02.334Z,2.70
2023-05-19T07:00:14.470Z,2.70
2023-05-19T07:05:21.265Z,2.80
2023-05-19T07:10:28.805Z,2.80
2023-05-19T07:15:32.644Z,2.70
2023-05-19T07:20:36.118Z,3.30
2023-05-19T07:25:40.764Z,3.00
2023-05-19T07:30:44.363Z,2.60
2023-05-19T07:35:47.970Z,2.70
2023-05-19T07:40:51.238Z,3.00
2023-05-19T07:45:56.461Z,3.80
2023-05-19T07:51:00.026Z,3.40
2023-05-19T07:56:03.776Z,3.50
2023-05-19T08:01:06.984Z,3.50
2023-05-19T08:06:10.310Z,3.90
2023-05-19T08:11:13.730Z,3.50
2023-05-19T08:16:17.037Z,3.50
2023-05-19T08:21:20.412Z,4.30
2023-05-19T08:26:23.720Z,3.90
2023-05-19T08:31:27.318Z,4.20
2023-05-19T08:36:30.869Z,4.20
2023-05-19T08:41:34.356Z,3.70
2023-05-19T08:46:37.868Z,4.60
2023-05-19T08:52:25.517Z,4.30
2023-05-19T09:03:42.114Z,4.50
2023-05-19T09:08:52.425Z,4.50
2023-05-19T09:13:55.600Z,4.70
2023-05-19T09:19:14.604Z,4.60
2023-05-19T09:24:28.168Z,4.30
2023-05-19T09:37:28.643Z,4.90
2023-05-19T09:42:58.578Z,5.30
2023-05-19T09:49:34.738Z,4.50
2023-05-19T09:55:25.941Z,4.60
2023-05-19T10:01:43.796Z,6.00
2023-05-19T10:07:18.687Z,5.20
2023-05-19T10:12:52.952Z,5.40
2023-05-19T10:18:05.783Z,5.10
2023-05-19T10:23:09.431Z,4.70
2023-05-19T10:28:20.626Z,5.10
2023-05-19T10:33:51.610Z,5.40
2023-05-19T10:39:38.846Z,5.70
2023-05-19T10:45:18.878Z,7.90
2023-05-19T10:50:22.227Z,5.80
2023-05-19T10:56:05.054Z,5.40
2023-05-19T11:07:22.511Z,5.90
2023-05-19T11:12:46.090Z,6.40
2023-05-19T11:25:28.102Z,6.60
2023-05-19T11:31:52.720Z,6.80
2023-05-19T11:38:11.015Z,6.70
2023-05-19T11:44:35.987Z,6.10
2023-05-19T11:51:18.438Z,6.20
2023-05-19T12:03:31.489Z,6.10
2023-05-19T12:15:32.058Z,6.20
2023-05-19T12:28:08.921Z,5.70
2023-05-19T12:34:51.014Z,5.70
2023-05-19T12:52:24.588Z,5.70
2023-05-19T12:57:33.011Z,5.30
2023-05-19T13:03:09.005Z,5.80
2023-05-19T13:08:15.508Z,5.70
2023-05-19T13:13:19.619Z,6.30
2023-05-19T13:18:22.990Z,5.50
2023-05-19T13:23:26.656Z,5.60
2023-05-19T13:28:30.458Z,5.30
2023-05-19T13:33:33.746Z,5.30
2023-05-19T13:38:37.206Z,6.00
2023-05-19T13:43:40.707Z,5.90
2023-05-19T13:48:44.047Z,5.20
2023-05-19T13:53:47.537Z,5.20
2023-05-19T13:58:51.007Z,6.00
2023-05-19T14:03:54.325Z,6.00
2023-05-19T14:08:58.223Z,5.80
2023-05-19T14:14:03.682Z,5.60
2023-05-19T14:19:07.464Z,5.60
2023-05-19T14:24:11.123Z,5.40
2023-05-19T14:29:14.435Z,5.50
2023-05-19T14:34:21.127Z,5.80
2023-05-19T14:39:24.538Z,5.70
2023-05-19T14:44:33.199Z,5.90
2023-05-19T14:49:36.501Z,6.40
2023-05-19T14:54:40.203Z,5.70
2023-05-19T14:59:43.706Z,5.90
2023-05-19T15:04:47.070Z,6.00
2023-05-19T15:09:50.300Z,6.30
2023-05-19T15:15:00.824Z,5.80
2023-05-19T15:20:04.727Z,5.40
2023-05-19T15:25:09.476Z,6.00
2023-05-19T15:30:12.871Z,5.90
2023-05-19T15:35:16.333Z,5.80
2023-05-19T15:40:19.673Z,6.00
2023-05-19T15:45:23.103Z,6.10
2023-05-19T15:50:27.088Z,5.70
2023-05-19T15:55:30.652Z,5.40
2023-05-19T16:00:34.029Z,5.60
2023-05-19T16:05:37.671Z,6.00
2023-05-19T16:10:41.022Z,7.20
2023-05-19T16:15:44.170Z,6.50
2023-05-19T16:20:47.354Z,5.90
2023-05-19T16:25:51.255Z,6.30
2023-05-19T16:31:01.265Z,6.90
2023-05-19T16:36:06.590Z,10.20
2023-05-19T16:41:13.085Z,14.40
2023-05-19T16:46:16.667Z,6.40
2023-05-19T16:51:20.058Z,5.80
2023-05-19T16:56:23.288Z,6.00
2023-05-19T17:01:26.605Z,6.20
2023-05-19T17:06:30.282Z,5.70
2023-05-19T17:11:33.622Z,7.40
2023-05-19T17:16:37.383Z,7.40
2023-05-19T17:21:40.971Z,8.90
2023-05-19T17:26:44.532Z,8.60
2023-05-19T17:31:47.757Z,7.40
2023-05-19T17:36:51.336Z,7.90
2023-05-19T17:41:54.574Z,7.80
2023-05-19T17:46:58.223Z,8.10
2023-05-19T17:52:01.729Z,8.80
2023-05-19T17:57:11.706Z,7.50
2023-05-19T18:02:15.974Z,7.60
2023-05-19T18:07:20.087Z,9.00
2023-05-19T18:12:23.563Z,10.60
2023-05-19T18:17:27.060Z,10.70
2023-05-19T18:22:30.808Z,9.60
2023-05-19T18:27:33.960Z,8.70
2023-05-19T18:32:37.475Z,8.10
2023-05-19T18:37:40.778Z,7.30
2023-05-19T18:42:44.046Z,7.60
2023-05-19T18:47:47.280Z,6.90
2023-05-19T18:52:50.931Z,7.40
2023-05-19T18:57:54.618Z,7.60
2023-05-19T19:02:57.918Z,8.80
2023-05-19T19:08:01.456Z,8.30
2023-05-19T19:13:05.668Z,7.30
2023-05-19T19:18:09.005Z,8.00
2023-05-19T19:23:12.396Z,7.50
2023-05-19T19:28:15.739Z,7.30
2023-05-19T19:33:19.289Z,9.00
2023-05-19T19:38:22.674Z,9.20
2023-05-19T19:43:25.989Z,9.40
2023-05-19T19:48:29.359Z,9.50
2023-05-19T19:53:33.088Z,13.80
2023-05-19T19:58:36.326Z,19.50
2023-05-19T20:03:39.689Z,13.70
2023-05-19T20:08:42.828Z,16.90
2023-05-19T20:13:46.482Z,19.70
2023-05-19T20:18:50.723Z,12.60
2023-05-19T20:23:54.200Z,11.80
2023-05-19T20:28:57.500Z,10.50
2023-05-19T20:34:01.685Z,9.40
2023-05-19T20:39:07.231Z,9.40
2023-05-19T20:44:11.811Z,9.70
2023-05-19T20:49:15.067Z,12.70
2023-05-19T20:54:20.281Z,12.60
2023-05-19T20:59:23.970Z,10.90
2023-05-19T21:04:27.408Z,9.90
2023-05-19T21:09:30.795Z,9.10
2023-05-19T21:14:33.957Z,9.20
2023-05-19T21:19:37.609Z,9.40
2023-05-19T21:24:41.066Z,9.00
2023-05-19T21:29:44.268Z,10.60
2023-05-19T21:34:47.847Z,9.20
2023-05-19T21:39:51.711Z,9.10
2023-05-19T21:44:55.226Z,10.00
2023-05-19T21:49:58.409Z,10.00
2023-05-19T21:55:01.755Z,10.60
2023-05-19T22:00:06.699Z,9.50
2023-05-19T22:05:14.963Z,9.40
2023-05-19T22:10:18.379Z,10.60
2023-05-19T22:15:21.625Z,12.50
2023-05-19T22:20:24.988Z,11.20
2023-05-19T22:25:28.401Z,11.00
2023-05-19T22:30:38.433Z,11.40
2023-05-19T22:35:43.264Z,11.20
2023-05-19T22:40:46.545Z,13.40
2023-05-19T22:45:49.921Z,11.70
2023-05-19T22:50:53.987Z,11.80
2023-05-19T22:55:57.165Z,13.40
2023-05-19T23:01:00.627Z,11.50
2023-05-19T23:06:03.986Z,11.20
2023-05-19T23:11:07.830Z,12.00
2023-05-19T23:16:11.057Z,11.70
2023-05-19T23:21:14.642Z,11.00
2023-05-19T23:26:17.810Z,10.40
2023-05-19T23:31:21.043Z,10.90
2023-05-19T23:36:24.372Z,11.10
2023-05-19T23:41:27.581Z,9.70
2023-05-19T23:46:30.901Z,9.70
2023-05-19T23:51:34.299Z,9.90
2023-05-19T23:56:37.525Z,11.00
